createdAt,value
2022-09-14T00:00:42.468Z,12.10
2022-09-14T00:01:44.552Z,12.10
2022-09-14T00:02:46.786Z,12.10
2022-09-14T00:03:52.988Z,12.10
2022-09-14T00:04:54.750Z,12.10
2022-09-14T00:05:56.402Z,12.10
2022-09-14T00:06:58.487Z,12.10
2022-09-14T00:08:00.139Z,12.10
2022-09-14T00:09:02.860Z,12.10
2022-09-14T00:10:05.042Z,12.10
2022-09-14T00:11:09.601Z,12.10
2022-09-14T00:12:11.316Z,12.10
2022-09-14T00:13:14.513Z,12.20
2022-09-14T00:14:17.081Z,12.20
2022-09-14T00:15:18.853Z,12.20
2022-09-14T00:16:26.713Z,12.20
2022-09-14T00:17:28.392Z,12.20
2022-09-14T00:18:30.116Z,12.20
2022-09-14T00:19:31.775Z,12.20
2022-09-14T00:20:34.200Z,12.20
2022-09-14T00:21:37.823Z,12.20
2022-09-14T00:22:39.783Z,12.20
2022-09-14T00:23:42.276Z,12.20
2022-09-14T00:24:43.913Z,12.20
2022-09-14T00:25:45.636Z,12.20
2022-09-14T00:26:47.319Z,12.20
2022-09-14T00:27:51.325Z,12.10
2022-09-14T00:28:57.133Z,12.20
2022-09-14T00:29:58.962Z,12.10
2022-09-14T00:31:00.647Z,12.20
2022-09-14T00:32:02.889Z,12.10
2022-09-14T00:33:04.745Z,12.20
2022-09-14T00:34:09.386Z,12.20
2022-09-14T00:35:11.148Z,12.20
2022-09-14T00:36:18.767Z,12.20
2022-09-14T00:37:20.436Z,12.20
2022-09-14T00:38:22.122Z,12.20
2022-09-14T00:39:24.836Z,12.10
2022-09-14T00:40:26.624Z,12.20
2022-09-14T00:41:34.588Z,12.20
2022-09-14T00:42:37.193Z,12.10
2022-09-14T00:43:55.788Z,12.10
2022-09-14T00:45:21.831Z,12.10
2022-09-14T00:46:24.803Z,12.10
2022-09-14T00:47:27.852Z,12.10
2022-09-14T00:48:30.226Z,12.00
2022-09-14T00:49:35.795Z,12.10
2022-09-14T00:50:37.602Z,12.10
2022-09-14T00:51:45.985Z,12.10
2022-09-14T00:52:50.443Z,12.00
2022-09-14T00:53:52.584Z,12.00
2022-09-14T00:55:00.352Z,12.10
2022-09-14T00:56:02.222Z,12.10
2022-09-14T00:57:04.094Z,12.00
2022-09-14T00:58:05.819Z,12.00
2022-09-14T00:59:16.107Z,12.00
2022-09-14T01:00:22.405Z,12.00
2022-09-14T01:01:25.964Z,12.00
2022-09-14T01:02:28.726Z,12.00
2022-09-14T01:03:30.440Z,12.00
2022-09-14T01:04:32.123Z,12.00
2022-09-14T01:06:02.171Z,12.00
2022-09-14T01:07:10.036Z,12.00
2022-09-14T01:08:32.987Z,12.00
2022-09-14T01:09:58.842Z,12.00
2022-09-14T01:11:11.778Z,12.00
2022-09-14T01:12:59.495Z,12.00
2022-09-14T01:14:16.663Z,12.00
2022-09-14T01:15:35.355Z,11.90
2022-09-14T01:17:05.910Z,11.90
2022-09-14T01:18:24.595Z,11.90
2022-09-14T01:19:38.822Z,11.90
2022-09-14T01:20:55.359Z,11.90
2022-09-14T01:22:16.747Z,11.90
2022-09-14T01:23:24.537Z,12.00
2022-09-14T01:24:36.678Z,11.90
2022-09-14T01:26:14.050Z,11.90
2022-09-14T01:27:41.572Z,11.90
2022-09-14T01:29:04.656Z,12.00
2022-09-14T01:30:12.941Z,11.90
2022-09-14T01:32:49.715Z,12.00
2022-09-14T01:34:05.417Z,11.90
2022-09-14T01:35:30.325Z,11.90
2022-09-14T01:36:36.569Z,12.00
2022-09-14T01:37:50.560Z,11.90
2022-09-14T01:38:55.364Z,11.90
2022-09-14T01:40:14.730Z,12.00
2022-09-14T01:41:20.980Z,12.00
2022-09-14T01:42:26.296Z,12.00
2022-09-14T01:43:40.863Z,12.00
2022-09-14T01:44:45.463Z,12.00
2022-09-14T01:45:59.213Z,12.00
2022-09-14T01:47:16.849Z,12.00
2022-09-14T01:48:23.384Z,12.00
2022-09-14T01:49:35.118Z,12.00
2022-09-14T01:50:44.018Z,11.90
2022-09-14T01:51:54.036Z,12.00
2022-09-14T01:53:07.568Z,12.00
2022-09-14T01:54:20.332Z,12.00
2022-09-14T01:55:28.457Z,12.00
2022-09-14T01:56:38.891Z,12.00
2022-09-14T01:57:45.783Z,12.00
2022-09-14T01:59:10.937Z,11.90
2022-09-14T02:00:17.550Z,12.00
2022-09-14T02:01:33.572Z,12.00
2022-09-14T02:02:40.567Z,12.00
2022-09-14T02:03:53.609Z,12.00
2022-09-14T02:05:01.475Z,12.00
2022-09-14T02:06:10.962Z,12.00
2022-09-14T02:07:13.121Z,12.00
2022-09-14T02:08:14.949Z,12.00
2022-09-14T02:09:22.744Z,12.00
2022-09-14T02:10:25.198Z,12.00
2022-09-14T02:11:26.956Z,12.00
2022-09-14T02:12:28.943Z,12.10
2022-09-14T02:13:30.830Z,12.10
2022-09-14T02:14:33.134Z,12.10
2022-09-14T02:15:37.218Z,12.10
2022-09-14T02:16:43.322Z,12.10
2022-09-14T02:17:46.091Z,12.10
2022-09-14T02:18:47.804Z,12.10
2022-09-14T02:20:00.700Z,12.10
2022-09-14T02:21:10.441Z,12.10
2022-09-14T02:22:12.237Z,12.00
2022-09-14T02:23:14.151Z,12.00
2022-09-14T02:24:16.269Z,12.00
2022-09-14T02:25:19.109Z,12.10
2022-09-14T02:26:22.836Z,12.10
2022-09-14T02:27:25.081Z,12.10
2022-09-14T02:28:26.756Z,12.10
2022-09-14T02:29:28.675Z,12.10
2022-09-14T02:30:35.170Z,12.10
2022-09-14T02:31:50.491Z,12.10
2022-09-14T02:33:14.224Z,12.10
2022-09-14T02:34:36.929Z,12.10
2022-09-14T02:35:47.198Z,12.10
2022-09-14T02:37:07.580Z,12.00
2022-09-14T02:38:20.388Z,12.00
2022-09-14T02:39:44.580Z,12.00
2022-09-14T02:41:37.415Z,12.00
2022-09-14T02:42:59.329Z,12.00
2022-09-14T02:44:05.273Z,12.00
2022-09-14T02:45:09.950Z,12.00
2022-09-14T02:46:32.414Z,12.00
2022-09-14T02:47:56.648Z,12.00
2022-09-14T02:49:31.796Z,12.00
2022-09-14T02:50:41.481Z,12.00
2022-09-14T02:52:12.505Z,12.00
2022-09-14T02:53:37.901Z,12.00
2022-09-14T02:55:02.173Z,12.00
2022-09-14T02:56:08.700Z,12.00
2022-09-14T02:57:10.552Z,12.00
2022-09-14T02:58:13.905Z,12.00
2022-09-14T02:59:16.092Z,12.00
2022-09-14T03:00:17.823Z,12.10
2022-09-14T03:01:24.137Z,12.10
2022-09-14T03:02:26.294Z,12.00
2022-09-14T03:03:31.199Z,12.10
2022-09-14T03:04:35.149Z,12.10
2022-09-14T03:05:37.262Z,12.10
2022-09-14T03:06:38.917Z,12.10
2022-09-14T03:07:40.568Z,12.10
2022-09-14T03:08:43.891Z,12.10
2022-09-14T03:09:45.815Z,12.10
2022-09-14T03:10:47.499Z,12.10
2022-09-14T03:11:49.161Z,12.10
2022-09-14T03:12:50.849Z,12.10
2022-09-14T03:13:52.627Z,12.10
2022-09-14T03:14:54.458Z,12.10
2022-09-14T03:15:56.419Z,12.10
2022-09-14T03:16:58.263Z,12.10
2022-09-14T03:17:59.968Z,12.10
2022-09-14T03:19:01.658Z,12.10
2022-09-14T03:20:04.383Z,12.10
2022-09-14T03:21:17.439Z,12.10
2022-09-14T03:22:19.215Z,12.10
2022-09-14T03:23:20.875Z,12.10
2022-09-14T03:24:22.543Z,12.10
2022-09-14T03:25:24.214Z,12.10
2022-09-14T03:26:28.968Z,12.10
2022-09-14T03:27:30.640Z,12.10
2022-09-14T03:28:32.307Z,12.10
2022-09-14T03:29:33.970Z,12.10
2022-09-14T03:30:36.300Z,12.20
2022-09-14T03:31:38.043Z,12.20
2022-09-14T03:32:39.788Z,12.20
2022-09-14T03:33:41.738Z,12.10
2022-09-14T03:34:43.418Z,12.20
2022-09-14T03:35:45.079Z,12.20
2022-09-14T03:36:46.865Z,12.20
2022-09-14T03:37:48.572Z,12.20
2022-09-14T03:38:52.815Z,12.20
2022-09-14T03:39:54.678Z,12.20
2022-09-14T03:40:57.975Z,12.20
2022-09-14T03:41:59.700Z,12.20
2022-09-14T03:43:01.591Z,12.20
2022-09-14T03:44:03.409Z,12.20
2022-09-14T03:45:05.689Z,12.20
2022-09-14T03:46:13.142Z,12.20
2022-09-14T03:47:14.909Z,12.20
2022-09-14T03:48:16.803Z,12.20
2022-09-14T03:49:18.636Z,12.20
2022-09-14T03:50:20.438Z,12.20
2022-09-14T03:51:22.970Z,12.20
2022-09-14T03:52:24.758Z,12.20
2022-09-14T03:53:26.572Z,12.20
2022-09-14T03:54:28.321Z,12.20
2022-09-14T03:55:30.082Z,12.20
2022-09-14T03:56:31.882Z,12.20
2022-09-14T03:57:33.720Z,12.20
2022-09-14T03:58:35.393Z,12.20
2022-09-14T03:59:41.678Z,12.20
2022-09-14T04:00:45.577Z,12.20
2022-09-14T04:01:47.548Z,12.20
2022-09-14T04:02:49.476Z,12.20
2022-09-14T04:03:51.435Z,12.20
2022-09-14T04:04:53.901Z,12.20
2022-09-14T04:05:56.525Z,12.20
2022-09-14T04:06:59.216Z,12.30
2022-09-14T04:08:00.938Z,12.30
2022-09-14T04:09:02.691Z,12.30
2022-09-14T04:10:05.686Z,12.30
2022-09-14T04:11:14.619Z,12.30
2022-09-14T04:12:16.356Z,12.30
2022-09-14T04:13:18.141Z,12.30
2022-09-14T04:14:19.953Z,12.30
2022-09-14T04:15:21.600Z,12.30
2022-09-14T04:16:23.320Z,12.30
2022-09-14T04:17:25.219Z,12.30
2022-09-14T04:18:27.543Z,12.30
2022-09-14T04:19:29.208Z,12.30
2022-09-14T04:20:30.853Z,12.30
2022-09-14T04:21:32.969Z,12.30
2022-09-14T04:22:34.803Z,12.30
2022-09-14T04:23:56.683Z,12.30
2022-09-14T04:24:58.545Z,12.30
2022-09-14T04:26:00.312Z,12.30
2022-09-14T04:27:02.179Z,12.30
2022-09-14T04:28:19.807Z,12.30
2022-09-14T04:29:22.170Z,12.30
2022-09-14T04:30:24.079Z,12.30
2022-09-14T04:31:26.445Z,12.30
2022-09-14T04:32:32.206Z,12.30
2022-09-14T04:33:36.819Z,12.40
2022-09-14T04:34:38.677Z,12.30
2022-09-14T04:35:40.515Z,12.30
2022-09-14T04:36:42.764Z,12.40
2022-09-14T04:37:44.424Z,12.40
2022-09-14T04:38:46.945Z,12.40
2022-09-14T04:39:48.746Z,12.40
2022-09-14T04:40:50.467Z,12.40
2022-09-14T04:41:52.331Z,12.40
2022-09-14T04:42:54.266Z,12.40
2022-09-14T04:43:57.232Z,12.40
2022-09-14T04:44:58.971Z,12.40
2022-09-14T04:46:28.175Z,12.40
2022-09-14T04:47:30.013Z,12.40
2022-09-14T04:48:35.313Z,12.40
2022-09-14T04:49:37.023Z,12.40
2022-09-14T04:50:38.702Z,12.40
2022-09-14T04:51:40.427Z,12.40
2022-09-14T04:52:42.070Z,12.40
2022-09-14T04:53:45.665Z,12.40
2022-09-14T04:54:47.355Z,12.40
2022-09-14T04:55:49.028Z,12.40
2022-09-14T04:56:50.706Z,12.50
2022-09-14T04:57:52.370Z,12.40
2022-09-14T04:58:58.632Z,12.50
2022-09-14T05:00:00.710Z,12.50
2022-09-14T05:01:08.481Z,12.50
2022-09-14T05:02:10.247Z,12.50
2022-09-14T05:03:11.994Z,12.50
2022-09-14T05:04:13.922Z,12.50
2022-09-14T05:05:15.724Z,12.40
2022-09-14T05:06:22.964Z,12.50
2022-09-14T05:07:24.711Z,12.50
2022-09-14T05:08:26.796Z,12.50
2022-09-14T05:09:28.653Z,12.50
2022-09-14T05:10:30.377Z,12.50
2022-09-14T05:11:34.668Z,12.50
2022-09-14T05:12:36.743Z,12.60
2022-09-14T05:13:38.439Z,12.60
2022-09-14T05:14:40.725Z,12.60
2022-09-14T05:15:47.065Z,12.60
2022-09-14T05:16:52.259Z,12.60
2022-09-14T05:17:55.094Z,12.70
2022-09-14T05:19:02.620Z,12.70
2022-09-14T05:20:04.729Z,12.70
2022-09-14T05:21:10.420Z,12.80
2022-09-14T05:22:12.321Z,12.80
2022-09-14T05:23:14.159Z,12.80
2022-09-14T05:24:18.732Z,12.90
2022-09-14T05:25:20.449Z,12.90
2022-09-14T05:26:23.803Z,12.90
2022-09-14T05:27:25.517Z,12.90
2022-09-14T05:28:27.850Z,13.00
2022-09-14T05:29:30.033Z,13.00
2022-09-14T05:30:31.699Z,13.00
2022-09-14T05:31:33.807Z,13.00
2022-09-14T05:32:35.694Z,13.00
2022-09-14T05:33:38.121Z,13.10
2022-09-14T05:34:40.023Z,13.10
2022-09-14T05:35:41.744Z,13.10
2022-09-14T05:36:43.681Z,13.00
2022-09-14T05:37:45.612Z,13.00
2022-09-14T05:38:47.935Z,13.00
2022-09-14T05:39:49.898Z,13.00
2022-09-14T05:40:55.047Z,13.10
2022-09-14T05:41:56.761Z,13.00
2022-09-14T05:42:58.449Z,13.00
2022-09-14T05:44:00.153Z,13.00
2022-09-14T05:45:02.036Z,13.00
2022-09-14T05:46:06.400Z,13.00
2022-09-14T05:47:08.164Z,13.00
2022-09-14T05:48:09.832Z,13.10
2022-09-14T05:49:11.620Z,13.00
2022-09-14T05:50:15.972Z,13.00
2022-09-14T05:51:20.171Z,13.10
2022-09-14T05:52:21.959Z,13.00
2022-09-14T05:53:23.751Z,13.00
2022-09-14T05:54:25.783Z,13.00
2022-09-14T05:55:27.458Z,13.00
2022-09-14T05:56:31.773Z,13.00
2022-09-14T05:57:33.890Z,13.00
2022-09-14T05:58:37.083Z,13.00
2022-09-14T05:59:39.026Z,13.00
2022-09-14T06:00:40.886Z,13.00
2022-09-14T06:01:42.622Z,13.00
2022-09-14T06:02:52.756Z,13.00
2022-09-14T06:03:56.223Z,13.00
2022-09-14T06:04:57.959Z,13.00
2022-09-14T06:06:00.019Z,13.10
2022-09-14T06:07:17.814Z,13.20
2022-09-14T06:08:20.859Z,13.20
2022-09-14T06:09:22.599Z,13.20
2022-09-14T06:10:24.271Z,13.20
2022-09-14T06:11:28.948Z,13.20
2022-09-14T06:12:30.823Z,13.20
2022-09-14T06:13:32.917Z,13.20
2022-09-14T06:14:34.924Z,13.30
2022-09-14T06:15:36.585Z,13.30
2022-09-14T06:16:38.293Z,13.40
2022-09-14T06:17:39.972Z,13.40
2022-09-14T06:18:43.183Z,13.40
2022-09-14T06:19:44.843Z,13.40
2022-09-14T06:20:52.552Z,13.40
2022-09-14T06:21:54.431Z,13.40
2022-09-14T06:22:56.084Z,13.50
2022-09-14T06:23:58.135Z,13.50
2022-09-14T06:24:59.842Z,13.50
2022-09-14T06:26:03.172Z,13.50
2022-09-14T06:27:05.179Z,13.50
2022-09-14T06:28:06.820Z,13.50
2022-09-14T06:29:08.601Z,13.50
2022-09-14T06:30:10.887Z,13.50
2022-09-14T06:31:17.778Z,13.50
2022-09-14T06:32:20.631Z,13.60
2022-09-14T06:33:22.890Z,13.60
2022-09-14T06:34:24.571Z,13.60
2022-09-14T06:35:26.254Z,13.60
2022-09-14T06:36:28.854Z,13.60
2022-09-14T06:37:30.504Z,13.60
2022-09-14T06:38:33.117Z,13.60
2022-09-14T06:39:34.900Z,13.70
2022-09-14T06:40:36.564Z,13.70
2022-09-14T06:41:38.370Z,13.70
2022-09-14T06:42:40.011Z,13.80
2022-09-14T06:43:42.978Z,13.80
2022-09-14T06:44:44.665Z,13.80
2022-09-14T06:46:12.088Z,13.80
2022-09-14T06:47:13.868Z,13.90
2022-09-14T06:48:15.701Z,13.90
2022-09-14T06:49:20.611Z,13.90
2022-09-14T06:50:22.324Z,13.90
2022-09-14T06:51:34.346Z,13.90
2022-09-14T06:52:37.038Z,14.00
2022-09-14T06:53:38.695Z,14.00
2022-09-14T06:54:40.347Z,14.00
2022-09-14T06:55:42.800Z,14.10
2022-09-14T06:56:46.414Z,14.10
2022-09-14T06:57:48.944Z,14.10
2022-09-14T06:58:52.194Z,14.00
2022-09-14T06:59:53.879Z,14.00
2022-09-14T07:01:00.785Z,14.00
2022-09-14T07:02:02.511Z,14.00
2022-09-14T07:03:04.481Z,14.00
2022-09-14T07:04:07.160Z,14.00
2022-09-14T07:05:09.395Z,14.00
2022-09-14T07:06:16.686Z,14.00
2022-09-14T07:07:18.505Z,14.00
2022-09-14T07:08:28.914Z,14.10
2022-09-14T07:09:31.785Z,14.10
2022-09-14T07:10:34.978Z,14.00
2022-09-14T07:11:37.087Z,14.00
2022-09-14T07:12:38.920Z,14.00
2022-09-14T07:13:41.023Z,13.90
2022-09-14T07:14:42.662Z,13.90
2022-09-14T07:15:50.095Z,13.90
2022-09-14T07:16:51.757Z,13.90
2022-09-14T07:17:53.820Z,13.90
2022-09-14T07:18:57.393Z,13.90
2022-09-14T07:19:59.035Z,13.90
2022-09-14T07:21:07.060Z,13.90
2022-09-14T07:22:08.939Z,13.80
2022-09-14T07:23:13.021Z,13.90
2022-09-14T07:24:17.493Z,13.80
2022-09-14T07:25:19.187Z,13.80
2022-09-14T07:26:23.497Z,13.80
2022-09-14T07:27:25.291Z,13.80
2022-09-14T07:28:27.427Z,13.80
2022-09-14T07:29:29.136Z,13.80
2022-09-14T07:30:30.829Z,13.90
2022-09-14T07:31:48.867Z,14.00
2022-09-14T07:32:50.633Z,14.00
2022-09-14T07:33:57.157Z,14.10
2022-09-14T07:34:58.931Z,14.10
2022-09-14T07:36:08.474Z,14.10
2022-09-14T07:37:10.644Z,14.10
2022-09-14T07:38:12.384Z,14.10
2022-09-14T07:39:16.631Z,14.10
2022-09-14T07:40:18.394Z,14.20
2022-09-14T07:41:26.327Z,14.10
2022-09-14T07:42:28.215Z,14.10
2022-09-14T07:43:30.324Z,14.20
2022-09-14T07:44:32.144Z,14.20
2022-09-14T07:45:35.311Z,14.20
2022-09-14T07:46:40.475Z,14.20
2022-09-14T07:47:42.630Z,14.30
2022-09-14T07:48:44.743Z,14.30
2022-09-14T07:49:46.618Z,14.40
2022-09-14T07:50:49.163Z,14.40
2022-09-14T07:51:52.800Z,14.50
2022-09-14T07:52:54.499Z,14.50
2022-09-14T07:53:57.187Z,14.50
2022-09-14T07:54:59.061Z,14.60
2022-09-14T07:56:01.733Z,14.60
2022-09-14T07:57:03.575Z,14.60
2022-09-14T07:58:05.954Z,14.60
2022-09-14T07:59:34.523Z,14.70
2022-09-14T08:00:31.499Z,14.70
2022-09-14T08:01:34.116Z,14.70
2022-09-14T08:02:38.397Z,14.70
2022-09-14T08:03:43.131Z,14.70
2022-09-14T08:04:44.871Z,14.70
2022-09-14T08:05:46.715Z,14.70
2022-09-14T08:06:48.570Z,14.70
2022-09-14T08:07:56.752Z,14.70
2022-09-14T08:08:59.176Z,14.60
2022-09-14T08:10:02.167Z,14.60
2022-09-14T08:11:11.188Z,14.60
2022-09-14T08:12:16.265Z,14.60
2022-09-14T08:13:18.313Z,14.60
2022-09-14T08:14:20.608Z,14.60
2022-09-14T08:15:28.280Z,14.50
2022-09-14T08:16:32.094Z,14.60
2022-09-14T08:17:33.801Z,14.50
2022-09-14T08:18:37.252Z,14.40
2022-09-14T08:19:41.260Z,14.40
2022-09-14T08:20:43.234Z,14.40
2022-09-14T08:21:47.669Z,14.40
2022-09-14T08:22:49.820Z,14.30
2022-09-14T08:23:52.290Z,14.40
2022-09-14T08:24:54.099Z,14.30
2022-09-14T08:25:55.911Z,14.30
2022-09-14T08:26:57.722Z,14.30
2022-09-14T08:28:01.389Z,14.30
2022-09-14T08:29:04.909Z,14.40
2022-09-14T08:30:07.155Z,14.30
2022-09-14T08:31:14.786Z,14.30
2022-09-14T08:32:16.576Z,14.30
2022-09-14T08:33:18.655Z,14.30
2022-09-14T08:34:20.887Z,14.30
2022-09-14T08:35:40.760Z,14.30
2022-09-14T08:36:45.960Z,14.30
2022-09-14T08:37:47.785Z,14.30
2022-09-14T08:38:50.061Z,14.30
2022-09-14T08:39:59.770Z,14.30
2022-09-14T08:41:16.178Z,14.40
2022-09-14T08:42:20.847Z,14.40
2022-09-14T08:43:25.280Z,14.40
2022-09-14T08:44:42.688Z,14.40
2022-09-14T08:45:45.879Z,14.40
2022-09-14T08:46:58.970Z,14.40
2022-09-14T08:48:01.076Z,14.40
2022-09-14T08:49:10.038Z,14.40
2022-09-14T08:50:18.659Z,14.40
2022-09-14T08:51:20.760Z,14.40
2022-09-14T08:52:34.614Z,14.40
2022-09-14T08:53:39.912Z,14.40
2022-09-14T08:54:41.775Z,14.40
2022-09-14T08:55:50.458Z,14.40
2022-09-14T08:57:25.910Z,14.50
2022-09-14T08:59:11.130Z,14.40
2022-09-14T09:00:20.930Z,14.40
2022-09-14T09:02:03.225Z,14.40
2022-09-14T09:03:26.439Z,14.50
2022-09-14T09:04:54.428Z,14.50
2022-09-14T09:06:10.897Z,14.50
2022-09-14T09:07:26.916Z,14.40
2022-09-14T09:08:45.177Z,14.50
2022-09-14T09:09:49.755Z,14.50
2022-09-14T09:10:54.423Z,14.50
2022-09-14T09:11:56.365Z,14.50
2022-09-14T09:13:01.070Z,14.40
2022-09-14T09:14:21.652Z,14.50
2022-09-14T09:15:34.008Z,14.50
2022-09-14T09:16:37.928Z,14.50
2022-09-14T09:17:44.460Z,14.50
2022-09-14T09:18:49.711Z,14.60
2022-09-14T09:19:58.007Z,14.60
2022-09-14T09:21:11.722Z,14.60
2022-09-14T09:22:19.078Z,14.60
2022-09-14T09:23:22.947Z,14.60
2022-09-14T09:24:37.097Z,14.70
2022-09-14T09:25:46.060Z,14.70
2022-09-14T09:26:47.992Z,14.70
2022-09-14T09:27:51.496Z,14.70
2022-09-14T09:28:57.028Z,14.70
2022-09-14T09:29:58.876Z,14.70
2022-09-14T09:31:14.601Z,14.70
2022-09-14T09:32:23.756Z,14.70
2022-09-14T09:33:27.417Z,14.60
2022-09-14T09:34:30.389Z,14.60
2022-09-14T09:35:33.382Z,14.60
2022-09-14T09:36:39.224Z,14.70
2022-09-14T09:37:41.150Z,14.70
2022-09-14T09:38:43.047Z,14.70
2022-09-14T09:39:45.407Z,14.80
2022-09-14T09:40:51.663Z,14.80
2022-09-14T09:42:01.072Z,14.90
2022-09-14T09:43:21.295Z,14.90
2022-09-14T09:45:07.889Z,14.80
2022-09-14T09:46:11.326Z,14.90
2022-09-14T09:47:13.426Z,14.80
2022-09-14T09:48:17.600Z,14.80
2022-09-14T09:49:26.229Z,14.90
2022-09-14T09:50:28.267Z,14.90
2022-09-14T09:51:34.782Z,14.90
2022-09-14T09:52:36.861Z,14.90
2022-09-14T09:53:50.767Z,15.00
2022-09-14T09:54:54.282Z,15.00
2022-09-14T09:55:57.365Z,15.00
2022-09-14T09:57:00.644Z,15.10
2022-09-14T09:58:28.998Z,15.10
2022-09-14T09:59:38.888Z,15.20
2022-09-14T10:00:41.197Z,15.30
2022-09-14T10:01:43.265Z,15.40
2022-09-14T10:02:45.453Z,15.60
2022-09-14T10:04:08.868Z,15.70
2022-09-14T10:05:11.317Z,15.90
2022-09-14T10:06:14.908Z,16.00
2022-09-14T10:07:22.015Z,16.10
2022-09-14T10:08:23.754Z,16.20
2022-09-14T10:09:27.690Z,16.20
2022-09-14T10:10:35.279Z,16.20
2022-09-14T10:11:38.401Z,16.30
2022-09-14T10:12:49.691Z,16.30
2022-09-14T10:13:51.868Z,16.40
2022-09-14T10:15:34.581Z,16.40
2022-09-14T10:16:40.646Z,16.40
2022-09-14T10:18:01.114Z,16.50
2022-09-14T10:19:03.593Z,16.60
2022-09-14T10:20:07.152Z,16.70
2022-09-14T10:21:09.752Z,16.80
2022-09-14T10:22:22.976Z,16.80
2022-09-14T10:23:30.383Z,16.90
2022-09-14T10:24:34.762Z,17.00
2022-09-14T10:25:36.484Z,17.10
2022-09-14T10:26:38.297Z,17.10
2022-09-14T10:27:58.660Z,17.10
2022-09-14T10:29:30.504Z,17.20
2022-09-14T10:30:45.357Z,17.10
2022-09-14T10:31:48.514Z,17.10
2022-09-14T10:32:56.554Z,17.10
2022-09-14T10:33:58.854Z,17.30
2022-09-14T10:35:03.028Z,17.40
2022-09-14T10:36:23.549Z,17.50
2022-09-14T10:37:43.861Z,17.70
2022-09-14T10:39:10.484Z,17.80
2022-09-14T10:40:44.328Z,17.90
2022-09-14T10:42:17.884Z,17.90
2022-09-14T10:43:38.622Z,17.80
2022-09-14T10:44:58.926Z,17.60
2022-09-14T10:46:05.173Z,17.40
2022-09-14T10:47:10.038Z,17.30
2022-09-14T10:48:14.684Z,17.20
2022-09-14T10:49:45.111Z,17.10
2022-09-14T10:50:49.251Z,16.90
2022-09-14T10:52:04.317Z,16.80
2022-09-14T10:53:29.525Z,16.70
2022-09-14T10:55:05.155Z,16.70
2022-09-14T10:56:23.610Z,16.70
2022-09-14T10:57:45.940Z,16.70
2022-09-14T10:58:57.057Z,16.60
2022-09-14T11:00:14.851Z,16.70
2022-09-14T11:01:44.061Z,16.80
2022-09-14T11:02:48.819Z,17.20
2022-09-14T11:04:02.452Z,19.20
2022-09-14T11:05:22.611Z,20.90
2022-09-14T11:06:36.305Z,22.10
2022-09-14T11:07:49.503Z,23.10
2022-09-14T11:09:06.559Z,24.00
2022-09-14T11:10:25.455Z,24.60
2022-09-14T11:11:40.889Z,25.50
2022-09-14T11:13:00.762Z,26.00
2022-09-14T11:14:11.428Z,26.50
2022-09-14T11:15:32.370Z,27.00
2022-09-14T11:16:50.622Z,27.60
2022-09-14T11:18:11.233Z,28.00
2022-09-14T11:19:22.953Z,28.20
2022-09-14T11:20:34.318Z,27.80
2022-09-14T11:21:52.329Z,27.90
2022-09-14T11:23:05.651Z,28.20
2022-09-14T11:24:36.187Z,27.70
2022-09-14T11:25:46.888Z,26.60
2022-09-14T11:26:55.094Z,25.40
2022-09-14T11:28:08.912Z,24.30
2022-09-14T11:29:31.622Z,23.40
2022-09-14T11:30:43.039Z,22.40
2022-09-14T11:32:22.815Z,22.00
2022-09-14T11:34:06.341Z,21.60
2022-09-14T11:35:36.936Z,22.60
2022-09-14T11:36:45.948Z,23.70
2022-09-14T11:37:53.873Z,25.10
2022-09-14T11:39:06.981Z,26.40
2022-09-14T11:40:24.338Z,26.50
2022-09-14T11:41:44.591Z,27.10
2022-09-14T11:42:55.171Z,28.70
2022-09-14T11:44:10.685Z,29.90
2022-09-14T11:45:22.919Z,30.10
2022-09-14T11:46:35.896Z,29.30
2022-09-14T11:47:44.500Z,29.50
2022-09-14T11:49:08.226Z,28.40
2022-09-14T11:50:21.167Z,27.00
2022-09-14T11:51:36.420Z,25.20
2022-09-14T11:52:38.129Z,24.10
2022-09-14T11:53:42.957Z,23.00
2022-09-14T11:54:46.996Z,22.30
2022-09-14T11:55:51.031Z,21.90
2022-09-14T11:57:00.730Z,21.40
2022-09-14T11:58:07.095Z,21.00
2022-09-14T11:59:50.265Z,20.80
2022-09-14T12:00:51.891Z,20.40
2022-09-14T12:01:53.574Z,19.90
2022-09-14T12:03:13.277Z,19.60
2022-09-14T12:04:18.035Z,19.50
2022-09-14T12:05:30.360Z,19.30
2022-09-14T12:06:31.991Z,19.20
2022-09-14T12:07:50.153Z,19.00
2022-09-14T12:08:51.818Z,18.90
2022-09-14T12:09:53.959Z,18.80
2022-09-14T12:11:26.697Z,18.70
2022-09-14T12:12:31.338Z,18.50
2022-09-14T12:13:33.406Z,18.40
2022-09-14T12:14:36.613Z,18.30
2022-09-14T12:15:41.228Z,18.30
2022-09-14T12:17:38.215Z,18.20
2022-09-14T12:18:42.428Z,18.20
2022-09-14T12:19:46.513Z,18.00
2022-09-14T12:21:01.174Z,18.00
2022-09-14T12:22:19.515Z,18.00
2022-09-14T12:23:31.946Z,17.90
2022-09-14T12:24:33.949Z,17.90
2022-09-14T12:25:39.043Z,17.80
2022-09-14T12:26:40.930Z,17.80
2022-09-14T12:27:45.992Z,17.90
2022-09-14T12:28:48.973Z,18.00
2022-09-14T12:29:50.900Z,18.00
2022-09-14T12:30:53.506Z,18.00
2022-09-14T12:31:55.193Z,18.00
2022-09-14T12:32:57.072Z,18.00
2022-09-14T12:34:14.173Z,17.90
2022-09-14T12:35:36.471Z,17.90
2022-09-14T12:36:38.452Z,17.90
2022-09-14T12:37:40.269Z,17.90
2022-09-14T12:39:03.853Z,17.90
2022-09-14T12:40:13.066Z,18.00
2022-09-14T12:41:15.926Z,18.00
2022-09-14T12:42:32.231Z,17.90
2022-09-14T12:43:36.829Z,18.00
2022-09-14T12:44:42.924Z,17.90
2022-09-14T12:46:04.109Z,18.00
2022-09-14T12:47:24.427Z,18.00
2022-09-14T12:48:53.029Z,17.90
2022-09-14T12:50:00.874Z,17.90
2022-09-14T12:51:04.598Z,17.80
2022-09-14T12:52:20.265Z,17.80
2022-09-14T12:53:30.158Z,17.80
2022-09-14T12:54:55.318Z,17.80
2022-09-14T12:56:04.500Z,17.70
2022-09-14T12:57:37.617Z,17.60
2022-09-14T12:59:02.305Z,17.50
2022-09-14T13:00:13.441Z,17.50
2022-09-14T13:01:29.816Z,17.40
2022-09-14T13:02:40.878Z,17.40
2022-09-14T13:03:54.007Z,17.50
2022-09-14T13:04:58.079Z,17.40
2022-09-14T13:05:59.793Z,17.40
2022-09-14T13:07:06.048Z,17.40
2022-09-14T13:08:11.845Z,17.40
2022-09-14T13:09:28.954Z,17.50
2022-09-14T13:10:33.795Z,17.50
2022-09-14T13:11:41.377Z,17.60
2022-09-14T13:12:47.369Z,17.70
2022-09-14T13:13:49.608Z,17.70
2022-09-14T13:15:15.456Z,17.70
2022-09-14T13:16:35.197Z,17.70
2022-09-14T13:17:36.937Z,17.70
2022-09-14T13:18:38.880Z,17.50
2022-09-14T13:19:41.280Z,17.50
2022-09-14T13:20:54.567Z,17.50
2022-09-14T13:21:59.021Z,17.50
2022-09-14T13:23:01.903Z,17.40
2022-09-14T13:24:03.728Z,17.40
2022-09-14T13:25:05.879Z,17.40
2022-09-14T13:26:23.317Z,17.40
2022-09-14T13:27:34.117Z,17.30
2022-09-14T13:28:36.197Z,17.30
2022-09-14T13:29:38.057Z,17.30
2022-09-14T13:30:43.375Z,17.30
2022-09-14T13:31:45.942Z,17.40
2022-09-14T13:32:50.816Z,17.40
2022-09-14T13:33:54.372Z,17.30
2022-09-14T13:34:57.170Z,17.30
2022-09-14T13:36:02.760Z,17.30
2022-09-14T13:37:06.061Z,17.40
2022-09-14T13:38:27.940Z,17.50
2022-09-14T13:39:36.955Z,17.50
2022-09-14T13:40:38.769Z,17.60
2022-09-14T13:41:43.593Z,17.80
2022-09-14T13:42:45.568Z,18.00
2022-09-14T13:43:47.529Z,18.00
2022-09-14T13:44:50.427Z,17.90
2022-09-14T13:45:52.431Z,17.90
2022-09-14T13:46:57.875Z,17.90
2022-09-14T13:47:59.735Z,17.90
2022-09-14T13:49:01.578Z,17.80
2022-09-14T13:50:05.876Z,17.70
2022-09-14T13:51:09.772Z,17.60
2022-09-14T13:52:33.968Z,17.60
2022-09-14T13:53:48.675Z,17.60
2022-09-14T13:54:53.499Z,17.50
2022-09-14T13:55:55.184Z,17.40
2022-09-14T13:57:24.356Z,17.30
2022-09-14T13:58:26.459Z,17.30
2022-09-14T13:59:28.158Z,17.30
2022-09-14T14:00:30.879Z,17.30
2022-09-14T14:01:36.610Z,17.30
2022-09-14T14:02:50.686Z,17.20
2022-09-14T14:03:52.844Z,17.20
2022-09-14T14:04:54.741Z,17.20
2022-09-14T14:05:57.245Z,17.10
2022-09-14T14:07:27.526Z,17.10
2022-09-14T14:08:38.676Z,17.00
2022-09-14T14:09:50.653Z,17.00
2022-09-14T14:10:54.000Z,16.90
2022-09-14T14:11:55.822Z,16.80
2022-09-14T14:12:58.170Z,16.80
2022-09-14T14:14:13.148Z,16.70
2022-09-14T14:15:14.768Z,16.80
2022-09-14T14:16:29.327Z,16.70
2022-09-14T14:17:37.230Z,16.70
2022-09-14T14:18:41.567Z,16.70
2022-09-14T14:19:43.835Z,16.70
2022-09-14T14:20:45.776Z,16.70
2022-09-14T14:21:49.086Z,16.70
2022-09-14T14:23:10.859Z,16.60
2022-09-14T14:24:28.478Z,16.60
2022-09-14T14:25:46.031Z,16.60
2022-09-14T14:26:50.731Z,16.60
2022-09-14T14:28:00.453Z,16.60
2022-09-14T14:29:09.367Z,16.60
2022-09-14T14:30:16.460Z,16.60